Stena Suede — ZCEF5 — position and weather

sailwx.info

Track history (hours):
 
Tides and Currents Weather Stations Pressure Air Temp Water Temp Dewpoint Dewpoint Depression Visibility Wind Speed Wind Dir Waves Ship Positions

Stena Suede

Last reported at 2017-Apr-20 14:04 UTC. Time now 2017-Apr-24 15:29 UTC.
Position N 37°58' E 122°11'.

Length 274 m; draft 9 m.

Type: Tanker. MMSI: 310622000.

Date/timePositionNaut miles runAvg speedWind from/ knotsBaromVisibWave heightAir tempDewpointWater temp
2017-Apr-20 14:04N 37°58' E 122°11'2512.5
2017-Apr-20 12:05N 38°09' E 121°43'112.2
2017-Apr-20 11:59N 38°09' E 121°41'912.3
2017-Apr-20 11:14N 38°14' E 121°31'312.1
2017-Apr-20 10:57N 38°16' E 121°28'612.1
2017-Apr-20 10:28N 38°19' E 121°21'612.9
2017-Apr-20 10:00N 38°22' E 121°15'612.8
2017-Apr-20 09:30N 38°26' E 121°09'612.7
2017-Apr-20 09:00N 38°30' E 121°02'611.2
2017-Apr-20 08:30N 38°32' E 120°55'510.4
2017-Apr-20 08:00N 38°36' E 120°52'1212.1
2017-Apr-20 07:00N 38°49' E 120°51'812.6
2017-Apr-20 06:20N 38°57' E 120°49'413.0
2017-Apr-20 06:00N 39°01' E 120°50'812.7
2017-Apr-20 05:22N 39°09' E 120°53'512.8
2017-Apr-20 04:57N 39°14' E 120°56'1112.8
2017-Apr-20 04:05N 39°24' E 120°59'512.8
2017-Apr-20 03:39N 39°30' E 121°00'1412.6
2017-Apr-20 02:32N 39°43' E 121°04'312.4
2017-Apr-20 02:18N 39°46' E 121°06'  
Track history (hours):
 
Tides and Currents Weather Stations Pressure Air Temp Water Temp Dewpoint Dewpoint Depression Visibility Wind Speed Wind Dir Waves Ship Positions

Stena Suede

Last reported at 2017-Apr-20 14:04 UTC. Time now 2017-Apr-24 15:30 UTC.
Position N 37°58' E 122°11'.

Length 274 m; draft 9 m.

Type: Tanker. MMSI: 310622000.

Date/timePositionNaut miles runAvg speedWind from/ knotsBaromVisibWave heightAir tempDewpointWater temp
2017-Apr-20 14:04N 37°58' E 122°11'2512.5
2017-Apr-20 12:05N 38°09' E 121°43'112.2
2017-Apr-20 11:59N 38°09' E 121°41'912.3
2017-Apr-20 11:14N 38°14' E 121°31'312.1
2017-Apr-20 10:57N 38°16' E 121°28'612.1
2017-Apr-20 10:28N 38°19' E 121°21'612.9
2017-Apr-20 10:00N 38°22' E 121°15'612.8
2017-Apr-20 09:30N 38°26' E 121°09'612.7
2017-Apr-20 09:00N 38°30' E 121°02'611.2
2017-Apr-20 08:30N 38°32' E 120°55'510.4
2017-Apr-20 08:00N 38°36' E 120°52'1212.1
2017-Apr-20 07:00N 38°49' E 120°51'812.6
2017-Apr-20 06:20N 38°57' E 120°49'413.0
2017-Apr-20 06:00N 39°01' E 120°50'812.7
2017-Apr-20 05:22N 39°09' E 120°53'512.8
2017-Apr-20 04:57N 39°14' E 120°56'1112.8
2017-Apr-20 04:05N 39°24' E 120°59'512.8
2017-Apr-20 03:39N 39°30' E 121°00'1412.6
2017-Apr-20 02:32N 39°43' E 121°04'312.4
2017-Apr-20 02:18N 39°46' E 121°06'  

Dump ship's entire track history